James Reserve, California Weather observations

Data are for 10 minute period ending at time listed.
 Day   Time   Solar   Ave.   Ave.  Ave.  Vector  Max.   Baro.   Total    
  of    of     Rad.   Air    Rel.  Wind   Wind   Wind  Press.  Precip.   
Year   Day            Temp.  Hum.  Speed  Dir.   Gust                    
2017   (PST)  Kw/m2    F      %     mph   deg.    mph    mb.     in.     
-------------------------------------------------------------------------
 203   18:20   0.01   73.4    54    0.0     0     0.0   811.0    0.00 
 203   18:30   0.01   72.7    56    0.0     0     0.0   811.0    0.00 
 203   18:40   0.01   71.8    57    0.0     0     0.0   811.1    0.00 
 203   18:50   0.00   71.1    58    0.0    35     0.5   811.1    0.00 
 203   19:00   0.00   70.1    59    0.0     0     0.0   811.2    0.00 
 203   19:10   0.00   69.4    60    0.1    12     0.6   811.3    0.00 
 203   19:20   0.00   68.7    60    0.0     0     0.0   811.4    0.00 
 203   19:30   0.00   68.1    60    0.0     6     0.4   811.4    0.00 
 203   19:40   0.00   67.4    59    0.0     0     0.0   811.5    0.00 
 203   19:50   0.00   66.8    57    0.0     0     0.0   811.6    0.00 
 203   20:00   0.00   66.1    58    0.0     0     0.0   811.6    0.00 
 203   20:10   0.00   65.6    58    0.0     0     0.0   811.6    0.00 
 203   20:20   0.00   65.1    58    0.0     0     0.0   811.7    0.00 
 203   20:30   0.00   64.7    58    0.0     0     0.0   811.7    0.00 
 203   20:40   0.00   64.3    58    0.0     0     0.0   811.8    0.00 
 203   20:50   0.00   63.9    58    0.0     2     0.7   811.8    0.00 
 203   21:00   0.00   63.6    59    0.0     0     0.0   811.9    0.00 
 203   21:10   0.00   63.2    59    0.0     0     0.0   812.0    0.00 
 203   21:20   0.00   63.0    60    0.0     0     0.0   812.0    0.00 
 203   21:30   0.00   62.7    60    0.0     0     0.0   812.0    0.00 
 203   21:40   0.00   62.5    61    0.0     0     0.0   812.1    0.00 
 203   21:50   0.00   62.2    61    0.0     0     0.0   812.0    0.00 
 203   22:00   0.00   62.1    62    0.0     0     0.0   812.0    0.00 
 203   22:10   0.00   61.9    62    0.0     0     0.0   812.0    0.00 
 203   22:20   0.00   61.7    62    0.0     0     0.0   812.0    0.00 
 203   22:30   0.00   61.6    62    0.0     0     0.0   812.0    0.00 
 203   22:40   0.00   61.5    63    0.0     0     0.0   812.0    0.00 
 203   22:50   0.00   61.4    63    0.0     0     0.0   811.9    0.00 
 203   23:00   0.00   61.3    63    0.0     0     0.0   811.9    0.00 
 203   23:10   0.00   61.2    64    0.0     0     0.0   811.8    0.00 
 203   23:20   0.00   61.2    64    0.0     0     0.0   811.7    0.00 
 203   23:30   0.00   61.0    65    0.0     0     0.0   811.6    0.00 
 203   23:40   0.00   60.8    65    0.0     0     0.0   811.5    0.00 
 203   23:50   0.00   60.7    65    0.0     0     0.0   811.5    0.00 
 204    0:00   0.00   60.7    65    0.0     2     0.1   811.5    0.00 
 204    0:10   0.00   60.6    65    0.0     0     0.0   811.4    0.00 
 204    0:20   0.00   60.4    65    0.0     0     0.0   811.2    0.00 
 204    0:30   0.00   60.3    66    0.1    41     1.2   811.1    0.00 
 204    0:40   0.00   60.2    66    0.0     0     0.0   811.0    0.00 
 204    0:50   0.00   60.2    66    0.2    37     1.0   810.8    0.00 
 204    1:00   0.00   60.1    66    0.2    37     0.9   810.8    0.00 
 204    1:10   0.00   60.0    66    0.0     0     0.0   810.8    0.00 
 204    1:20   0.00   59.8    67    0.0    37     0.8   810.8    0.00 
 204    1:30   0.00   59.7    67    0.0    33     0.6   810.7    0.00 
 204    1:40   0.00   59.7    67    0.0    33     0.7   810.6    0.00 
 204    1:50   0.00   59.5    67    0.0     0     0.0   810.5    0.00 
 204    2:00   0.00   59.4    68    0.0     0     0.0   810.5    0.00 
 204    2:10   0.00   59.2    68    0.0    33     0.3   810.5    0.00 
 204    2:20   0.00   59.2    68    0.0     0     0.0   810.4    0.00 
 204    2:30   0.00   59.2    68    0.0     0     0.0   810.4    0.00 
 204    2:40   0.00   59.2    69    0.0     0     0.0   810.5    0.00 
 204    2:50   0.00   59.1    69    0.0    17     0.4   810.5    0.00 
 204    3:00   0.00   59.1    69    0.0     0     0.0   810.6    0.00 
 204    3:10   0.00   59.0    69    0.0     0     0.0   810.5    0.00 
 204    3:20   0.00   59.0    69    0.0     0     0.0   810.5    0.00 
 204    3:30   0.00   59.0    69    0.0     0     0.0   810.5    0.00 
 204    3:40   0.00   58.8    70    0.0     0     0.0   810.5    0.00 
 204    3:50   0.00   58.8    70    0.0     0     0.0   810.5    0.00 
 204    4:00   0.00   58.8    70    0.0     0     0.0   810.6    0.00 
 204    4:10   0.00   58.8    71    0.0     0     0.0   810.6    0.00 
 204    4:20   0.00   58.8    71    0.1    37     0.9   810.7    0.00 
 204    4:30   0.00   58.9    71    0.1    37     0.9   810.8    0.00 
 204    4:40   0.00   58.9    71    0.0     0     0.0   810.7    0.00 
 204    4:50   0.00   58.9    72    0.0     0     0.0   810.8    0.00 
 204    5:00   0.00   58.9    72    0.0     0     0.0   810.7    0.00 
 204    5:10   0.00   59.0    71    0.4    37     1.2   810.9    0.00 
 204    5:20   0.01   59.2    71    0.0     0     0.0   811.0    0.00 
 204    5:30   0.01   59.2    71    0.0     0     0.0   811.0    0.00 
 204    5:40   0.01   59.3    71    0.2    37     1.2   811.1    0.00 
 204    5:50   0.01   59.4    72    0.0    36     0.7   811.0    0.00 
 204    6:00   0.01   59.5    72    0.4    42     1.6   811.1    0.00 
 204    6:10   0.02   59.7    73    0.1    33     0.7   811.2    0.00 
 204    6:20   0.03   60.1    72    0.8    45     1.5   811.2    0.00 
 204    6:30   0.04   60.7    71    0.6    48     1.4   811.2    0.00 
 204    6:40   0.03   61.5    70    0.7    52     1.8   811.3    0.00 
 204    6:50   0.05   62.2    70    0.9    55     1.8   811.3    0.00 
 204    7:00   0.05   63.2    67    1.1    58     1.8   811.3    0.00 
 204    7:10   0.06   64.3    66    1.0    57     2.5   811.4    0.00 
 204    7:20   0.10   65.5    64    0.8    60     2.0   811.4    0.00 
 204    7:30   0.41   67.4    62    0.9    62     3.1   811.4    0.00 
 204    7:40   0.47   71.3    54    0.6    50     4.1   811.4    0.00 
 204    7:50   0.41   74.8    52    1.2   165     3.1   811.5    0.00 
 204    8:00   0.55   77.1    44    0.6    14     3.7   811.4    0.00 
 204    8:10   0.58   79.7    40    1.2   200     4.2   811.4    0.00 
 204    8:20   0.61   81.3    39    1.1   219     3.0   811.5    0.00 
 204    8:30   0.64   81.9    36    1.7   197     5.6   811.5    0.00 
 204    8:40   0.67   81.4    37    2.0   214     4.2   811.5    0.00 
 204    8:50   0.70   82.1    36    0.4   334     2.9   811.4    0.00 
 204    9:00   0.73   83.9    34    0.6   260     3.2   811.3    0.00 
 204    9:10   0.76   84.3    33    0.8   285     3.4   811.4    0.00 
 204    9:20   0.78   83.4    34    1.1     9     3.5   811.4    0.00 
 204    9:30   0.81   82.3    35    1.1   224     3.1   811.4    0.00 
 204    9:40   0.83   82.3    35    2.0   221     5.6   811.4    0.00 
 204    9:50   0.85   83.3    35    0.9   252     3.1   811.5    0.00 
 204   10:00   0.88   84.0    35    1.6   350     3.9   811.5    0.00 
 204   10:10   0.72   83.9    35    1.0   303     4.5   811.5    0.00 
 204   10:20   0.86   82.4    36    1.8   250     5.8   811.4    0.00 
 204   10:30   0.92   83.1    35    0.8   231     2.3   811.4    0.00 
 204   10:40   0.94   84.8    34    1.1   286     3.6   811.4    0.00 
 204   10:50   0.81   84.8    34    1.5   262     3.4   811.5    0.00 
 204   11:00   1.04   85.3    35    1.6   226     4.3   811.5    0.00 
 204   11:10   1.03   84.7    35    1.6   203     3.7   811.4    0.00 
 204   11:20   1.03   84.4    35    1.9   202     5.1   811.4    0.00 
 204   11:30   0.87   84.3    36    2.0   198     4.5   811.3    0.00 
 204   11:40   0.98   85.4    35    1.8   221     4.3   811.3    0.00 
 204   11:50   0.98   85.9    35    1.6   295     5.4   811.2    0.00 
 204   12:00   0.71   84.5    36    1.4   261     4.4   811.3    0.00 
 204   12:10   0.76   84.1    37    1.4   194     4.8   811.2    0.00 
 204   12:20   0.52   83.4    38    1.6   360     4.9   811.1    0.00 
 204   12:30   0.67   81.8    40    1.0   235     6.1   811.0    0.00 
 204   12:40   0.52   80.8    42    0.9   320     3.6   811.0    0.00 
 204   12:50   0.87   81.8    40    1.2   185     3.6   810.9    0.00 
 204   13:00   0.90   83.0    39    1.3   149     6.9   810.8    0.00 
 204   13:10   0.95   84.6    37    0.9   306     3.7   810.7    0.00 
 204   13:20   0.94   85.4    36    1.2   237     3.4   810.7    0.00 
 204   13:30   0.92   85.6    35    1.8   329     5.2   810.5    0.00 
 204   13:40   0.89   85.7    35    1.7   169     7.8   810.4    0.00 
 204   13:50   0.88   85.6    35    1.0   261     3.7   810.3    0.00 
 204   14:00   0.85   86.2    34    1.5   293     6.6   810.2    0.00 
 204   14:10   0.78   85.6    35    0.9   284     3.4   810.1    0.00 
 204   14:20   0.17   84.3    36    1.3   179     4.9   810.0    0.00 
 204   14:30   0.09   82.8    38    1.1   189     4.7   810.0    0.00 
 204   14:40   0.08   82.4    37    1.3   167     3.9   809.9    0.00 
 204   14:50   0.07   81.8    38    1.3   307     3.9   809.8    0.00 
 204   15:00   0.07   81.3    39    1.0    39     5.9   809.8    0.00 
 204   15:10   0.07   81.1    40    1.3   342     4.4   809.7    0.00 
 204   15:20   0.10   80.9    40    1.4   129     4.7   809.7    0.00 
 204   15:30   0.22   80.9    41    1.1   160     5.0   809.7    0.00 
 204   15:40   0.17   80.9    40    1.3   159     3.7   809.6    0.00 
 204   15:50   0.06   79.9    41    0.9   170     4.1   809.6    0.00 
 204   16:00   0.09   80.0    40    2.1   167     5.5   809.5    0.00 
 204   16:10   0.34   80.3    40    1.6   121     4.6   809.5    0.00 
 204   16:20   0.11   79.4    45    1.1   216     2.7   809.5    0.00 
 204   16:30   0.05   78.4    46    1.5   342     5.1   809.4    0.00 
 204   16:40   0.04   77.7    48    0.5   317     2.6   809.3    0.00 
 204   16:50   0.04   77.3    49    1.0   143     3.4   809.4    0.00 
 204   17:00   0.04   76.5    50    1.2   154     4.2   809.3    0.00 
 204   17:10   0.03   75.6    52    0.5   239     3.0   809.3    0.00 
 204   17:20   0.03   75.0    52    0.4   315     2.9   809.2    0.00 
 204   17:30   0.03   74.7    53    0.2   163     1.4   809.2    0.00 
 204   17:40   0.03   74.0    54    0.5   185     2.2   809.2    0.00 
 204   17:50   0.02   73.4    56    0.2   146     1.8   809.3    0.00 
 204   18:00   0.02   72.7    57    0.4   205     1.8   809.3    0.00 
 204   18:10   0.02   72.2    59    0.0     0     0.0   809.4    0.00 

Return to James Reserve graphs page.


Western Regional Climate Center,wrcc@dri.edu